sensor_id;sensor_type;location;lat;lon;timestamp;P1;durP1;ratioP1;P2;durP2;ratioP2
45688;SDS011;31400;48.132;20.872;2024-02-16T00:00:06;78.60;;;43.75;;
45688;SDS011;31400;48.132;20.872;2024-02-16T00:02:32;79.07;;;45.30;;
45688;SDS011;31400;48.132;20.872;2024-02-16T00:04:58;72.82;;;44.88;;
45688;SDS011;31400;48.132;20.872;2024-02-16T00:07:24;86.15;;;42.78;;
45688;SDS011;31400;48.132;20.872;2024-02-16T00:09:51;83.50;;;46.60;;
45688;SDS011;31400;48.132;20.872;2024-02-16T00:12:17;82.25;;;45.22;;
45688;SDS011;31400;48.132;20.872;2024-02-16T00:14:46;74.57;;;42.13;;
45688;SDS011;31400;48.132;20.872;2024-02-16T00:17:12;74.32;;;41.65;;
45688;SDS011;31400;48.132;20.872;2024-02-16T00:19:38;73.28;;;38.67;;
45688;SDS011;31400;48.132;20.872;2024-02-16T00:22:04;65.55;;;38.00;;
45688;SDS011;31400;48.132;20.872;2024-02-16T00:24:32;70.25;;;37.60;;
45688;SDS011;31400;48.132;20.872;2024-02-16T00:26:58;74.72;;;41.22;;
45688;SDS011;31400;48.132;20.872;2024-02-16T00:31:51;65.28;;;36.30;;
45688;SDS011;31400;48.132;20.872;2024-02-16T00:34:17;69.10;;;36.75;;
45688;SDS011;31400;48.132;20.872;2024-02-16T00:36:43;63.17;;;35.03;;
45688;SDS011;31400;48.132;20.872;2024-02-16T00:39:09;52.58;;;25.90;;
45688;SDS011;31400;48.132;20.872;2024-02-16T00:41:35;67.00;;;35.35;;
45688;SDS011;31400;48.132;20.872;2024-02-16T00:44:01;64.70;;;34.20;;
45688;SDS011;31400;48.132;20.872;2024-02-16T00:46:29;59.42;;;31.83;;
45688;SDS011;31400;48.132;20.872;2024-02-16T00:48:56;67.13;;;30.92;;
45688;SDS011;31400;48.132;20.872;2024-02-16T00:51:22;54.00;;;29.85;;
45688;SDS011;31400;48.132;20.872;2024-02-16T00:53:50;68.68;;;37.15;;
45688;SDS011;31400;48.132;20.872;2024-02-16T00:56:17;64.03;;;35.95;;
45688;SDS011;31400;48.132;20.872;2024-02-16T00:58:43;60.58;;;34.17;;
45688;SDS011;31400;48.132;20.872;2024-02-16T01:01:09;68.57;;;36.58;;
45688;SDS011;31400;48.132;20.872;2024-02-16T01:03:37;55.03;;;34.83;;
45688;SDS011;31400;48.132;20.872;2024-02-16T01:08:30;59.40;;;33.70;;
45688;SDS011;31400;48.132;20.872;2024-02-16T01:10:56;52.50;;;29.80;;
45688;SDS011;31400;48.132;20.872;2024-02-16T01:13:22;58.42;;;33.10;;
45688;SDS011;31400;48.132;20.872;2024-02-16T01:15:48;65.90;;;35.25;;
45688;SDS011;31400;48.132;20.872;2024-02-16T01:18:14;65.45;;;36.58;;
45688;SDS011;31400;48.132;20.872;2024-02-16T01:20:40;64.07;;;37.30;;
45688;SDS011;31400;48.132;20.872;2024-02-16T01:23:06;57.78;;;37.00;;
45688;SDS011;31400;48.132;20.872;2024-02-16T01:25:32;67.57;;;39.08;;
45688;SDS011;31400;48.132;20.872;2024-02-16T01:27:58;59.42;;;32.70;;
45688;SDS011;31400;48.132;20.872;2024-02-16T01:30:24;62.53;;;32.30;;
45688;SDS011;31400;48.132;20.872;2024-02-16T01:32:50;56.88;;;34.00;;
45688;SDS011;31400;48.132;20.872;2024-02-16T01:35:17;62.75;;;33.42;;
45688;SDS011;31400;48.132;20.872;2024-02-16T01:37:43;34.80;;;22.95;;
45688;SDS011;31400;48.132;20.872;2024-02-16T01:40:09;68.03;;;33.88;;
45688;SDS011;31400;48.132;20.872;2024-02-16T01:42:43;52.83;;;31.50;;
45688;SDS011;31400;48.132;20.872;2024-02-16T01:45:09;56.58;;;30.30;;
45688;SDS011;31400;48.132;20.872;2024-02-16T01:47:37;48.70;;;29.38;;
45688;SDS011;31400;48.132;20.872;2024-02-16T01:52:30;49.88;;;28.40;;
45688;SDS011;31400;48.132;20.872;2024-02-16T01:54:56;59.40;;;31.75;;
45688;SDS011;31400;48.132;20.872;2024-02-16T01:59:49;48.25;;;29.15;;
45688;SDS011;31400;48.132;20.872;2024-02-16T02:02:15;52.33;;;29.05;;
45688;SDS011;31400;48.132;20.872;2024-02-16T02:04:41;40.90;;;22.08;;
45688;SDS011;31400;48.132;20.872;2024-02-16T02:07:12;49.45;;;30.10;;
45688;SDS011;31400;48.132;20.872;2024-02-16T02:09:38;45.00;;;27.17;;
45688;SDS011;31400;48.132;20.872;2024-02-16T02:12:04;40.33;;;22.27;;
45688;SDS011;31400;48.132;20.872;2024-02-16T02:14:30;46.67;;;27.90;;
45688;SDS011;31400;48.132;20.872;2024-02-16T02:16:56;40.17;;;21.77;;
45688;SDS011;31400;48.132;20.872;2024-02-16T02:19:22;46.30;;;29.25;;
45688;SDS011;31400;48.132;20.872;2024-02-16T02:21:48;45.60;;;27.58;;
45688;SDS011;31400;48.132;20.872;2024-02-16T02:24:15;44.53;;;26.65;;
45688;SDS011;31400;48.132;20.872;2024-02-16T02:26:41;48.28;;;26.63;;
45688;SDS011;31400;48.132;20.872;2024-02-16T02:29:08;45.22;;;27.23;;
45688;SDS011;31400;48.132;20.872;2024-02-16T02:31:35;53.35;;;28.35;;
45688;SDS011;31400;48.132;20.872;2024-02-16T02:34:01;55.53;;;28.98;;
45688;SDS011;31400;48.132;20.872;2024-02-16T02:36:27;47.58;;;29.42;;
45688;SDS011;31400;48.132;20.872;2024-02-16T02:38:52;34.95;;;21.50;;
45688;SDS011;31400;48.132;20.872;2024-02-16T02:41:18;52.35;;;28.30;;
45688;SDS011;31400;48.132;20.872;2024-02-16T02:43:46;49.88;;;30.00;;
45688;SDS011;31400;48.132;20.872;2024-02-16T02:46:17;47.90;;;27.35;;
45688;SDS011;31400;48.132;20.872;2024-02-16T02:48:43;49.47;;;29.95;;
45688;SDS011;31400;48.132;20.872;2024-02-16T02:51:09;48.97;;;30.60;;
45688;SDS011;31400;48.132;20.872;2024-02-16T02:53:35;45.10;;;28.67;;
45688;SDS011;31400;48.132;20.872;2024-02-16T02:56:02;53.75;;;28.23;;
45688;SDS011;31400;48.132;20.872;2024-02-16T02:58:28;39.30;;;27.73;;
45688;SDS011;31400;48.132;20.872;2024-02-16T03:00:54;55.35;;;29.30;;
45688;SDS011;31400;48.132;20.872;2024-02-16T03:03:20;48.20;;;29.10;;
45688;SDS011;31400;48.132;20.872;2024-02-16T03:05:46;53.10;;;28.48;;
45688;SDS011;31400;48.132;20.872;2024-02-16T03:08:13;61.17;;;29.55;;
45688;SDS011;31400;48.132;20.872;2024-02-16T03:10:39;46.80;;;28.42;;
45688;SDS011;31400;48.132;20.872;2024-02-16T03:13:05;47.70;;;27.65;;
45688;SDS011;31400;48.132;20.872;2024-02-16T03:15:34;49.83;;;27.50;;
45688;SDS011;31400;48.132;20.872;2024-02-16T03:18:01;58.72;;;28.52;;
45688;SDS011;31400;48.132;20.872;2024-02-16T03:22:53;54.78;;;29.50;;
45688;SDS011;31400;48.132;20.872;2024-02-16T03:25:21;45.58;;;28.70;;
45688;SDS011;31400;48.132;20.872;2024-02-16T03:27:49;59.08;;;31.05;;
45688;SDS011;31400;48.132;20.872;2024-02-16T03:30:15;38.80;;;22.73;;
45688;SDS011;31400;48.132;20.872;2024-02-16T03:32:41;47.55;;;29.17;;
45688;SDS011;31400;48.132;20.872;2024-02-16T03:35:07;44.58;;;27.63;;
45688;SDS011;31400;48.132;20.872;2024-02-16T03:37:33;54.08;;;25.67;;
45688;SDS011;31400;48.132;20.872;2024-02-16T03:39:59;46.65;;;20.90;;
45688;SDS011;31400;48.132;20.872;2024-02-16T03:42:25;47.13;;;28.50;;
45688;SDS011;31400;48.132;20.872;2024-02-16T03:44:51;50.00;;;28.58;;
45688;SDS011;31400;48.132;20.872;2024-02-16T03:47:17;39.38;;;22.00;;
45688;SDS011;31400;48.132;20.872;2024-02-16T03:49:43;49.60;;;27.80;;
45688;SDS011;31400;48.132;20.872;2024-02-16T03:52:09;48.78;;;28.55;;
45688;SDS011;31400;48.132;20.872;2024-02-16T03:54:35;53.42;;;29.58;;
45688;SDS011;31400;48.132;20.872;2024-02-16T03:57:01;59.15;;;30.17;;
45688;SDS011;31400;48.132;20.872;2024-02-16T03:59:29;58.03;;;29.50;;
45688;SDS011;31400;48.132;20.872;2024-02-16T04:01:55;48.30;;;31.10;;
45688;SDS011;31400;48.132;20.872;2024-02-16T04:04:21;64.38;;;33.00;;
45688;SDS011;31400;48.132;20.872;2024-02-16T04:06:47;54.38;;;31.38;;
45688;SDS011;31400;48.132;20.872;2024-02-16T04:09:13;54.80;;;31.73;;
45688;SDS011;31400;48.132;20.872;2024-02-16T04:11:40;63.70;;;35.42;;
45688;SDS011;31400;48.132;20.872;2024-02-16T04:14:06;79.57;;;40.75;;
45688;SDS011;31400;48.132;20.872;2024-02-16T04:16:33;77.55;;;39.13;;
45688;SDS011;31400;48.132;20.872;2024-02-16T04:18:59;64.05;;;36.72;;
45688;SDS011;31400;48.132;20.872;2024-02-16T04:21:25;62.20;;;37.03;;
45688;SDS011;31400;48.132;20.872;2024-02-16T04:23:51;63.13;;;36.72;;
45688;SDS011;31400;48.132;20.872;2024-02-16T04:26:17;65.78;;;36.78;;
45688;SDS011;31400;48.132;20.872;2024-02-16T04:28:43;54.42;;;33.70;;
45688;SDS011;31400;48.132;20.872;2024-02-16T04:31:09;63.20;;;35.10;;
45688;SDS011;31400;48.132;20.872;2024-02-16T04:33:35;61.35;;;37.30;;
45688;SDS011;31400;48.132;20.872;2024-02-16T04:38:29;59.78;;;33.25;;
45688;SDS011;31400;48.132;20.872;2024-02-16T04:40:55;59.53;;;34.90;;
45688;SDS011;31400;48.132;20.872;2024-02-16T04:43:21;65.60;;;35.30;;
45688;SDS011;31400;48.132;20.872;2024-02-16T04:45:47;60.67;;;36.03;;
45688;SDS011;31400;48.132;20.872;2024-02-16T04:48:13;63.88;;;37.95;;
45688;SDS011;31400;48.132;20.872;2024-02-16T04:50:39;65.20;;;37.33;;
45688;SDS011;31400;48.132;20.872;2024-02-16T04:53:05;59.67;;;36.17;;
45688;SDS011;31400;48.132;20.872;2024-02-16T04:55:31;63.13;;;32.63;;
45688;SDS011;31400;48.132;20.872;2024-02-16T04:57:57;57.50;;;31.70;;
45688;SDS011;31400;48.132;20.872;2024-02-16T05:02:50;58.88;;;32.65;;
45688;SDS011;31400;48.132;20.872;2024-02-16T05:05:17;54.95;;;33.58;;
45688;SDS011;31400;48.132;20.872;2024-02-16T05:07:43;47.55;;;31.98;;
45688;SDS011;31400;48.132;20.872;2024-02-16T05:10:12;52.15;;;32.17;;
45688;SDS011;31400;48.132;20.872;2024-02-16T05:12:38;63.15;;;32.17;;
45688;SDS011;31400;48.132;20.872;2024-02-16T05:15:04;55.20;;;31.92;;
45688;SDS011;31400;48.132;20.872;2024-02-16T05:17:31;58.42;;;32.28;;
45688;SDS011;31400;48.132;20.872;2024-02-16T05:19:57;65.50;;;31.83;;
45688;SDS011;31400;48.132;20.872;2024-02-16T05:22:23;50.85;;;32.58;;
45688;SDS011;31400;48.132;20.872;2024-02-16T05:24:49;57.72;;;30.27;;
45688;SDS011;31400;48.132;20.872;2024-02-16T05:27:15;55.72;;;30.67;;
45688;SDS011;31400;48.132;20.872;2024-02-16T05:32:07;59.80;;;29.02;;
45688;SDS011;31400;48.132;20.872;2024-02-16T05:34:35;61.42;;;29.08;;
45688;SDS011;31400;48.132;20.872;2024-02-16T05:37:04;48.33;;;30.25;;
45688;SDS011;31400;48.132;20.872;2024-02-16T05:39:35;56.22;;;30.65;;
45688;SDS011;31400;48.132;20.872;2024-02-16T05:42:18;49.75;;;31.35;;
45688;SDS011;31400;48.132;20.872;2024-02-16T05:44:44;61.00;;;33.13;;
45688;SDS011;31400;48.132;20.872;2024-02-16T05:47:10;76.65;;;34.75;;
45688;SDS011;31400;48.132;20.872;2024-02-16T05:52:03;68.03;;;31.42;;
45688;SDS011;31400;48.132;20.872;2024-02-16T05:54:43;55.90;;;31.85;;
45688;SDS011;31400;48.132;20.872;2024-02-16T05:57:09;55.13;;;33.13;;
45688;SDS011;31400;48.132;20.872;2024-02-16T05:59:35;53.00;;;31.70;;
45688;SDS011;31400;48.132;20.872;2024-02-16T06:02:02;62.17;;;34.25;;
45688;SDS011;31400;48.132;20.872;2024-02-16T06:04:28;57.67;;;31.95;;
45688;SDS011;31400;48.132;20.872;2024-02-16T06:06:54;58.17;;;33.05;;
45688;SDS011;31400;48.132;20.872;2024-02-16T06:09:20;61.03;;;31.95;;
45688;SDS011;31400;48.132;20.872;2024-02-16T06:11:46;51.40;;;32.20;;
45688;SDS011;31400;48.132;20.872;2024-02-16T06:14:13;56.28;;;32.75;;
45688;SDS011;31400;48.132;20.872;2024-02-16T06:16:40;50.90;;;30.38;;
45688;SDS011;31400;48.132;20.872;2024-02-16T06:19:11;57.47;;;33.90;;
45688;SDS011;31400;48.132;20.872;2024-02-16T06:21:37;62.58;;;36.88;;
45688;SDS011;31400;48.132;20.872;2024-02-16T06:24:03;45.88;;;24.67;;
45688;SDS011;31400;48.132;20.872;2024-02-16T06:26:29;49.20;;;31.00;;
45688;SDS011;31400;48.132;20.872;2024-02-16T06:28:55;57.60;;;30.63;;
45688;SDS011;31400;48.132;20.872;2024-02-16T06:31:21;42.53;;;28.35;;
45688;SDS011;31400;48.132;20.872;2024-02-16T06:33:47;45.67;;;26.58;;
45688;SDS011;31400;48.132;20.872;2024-02-16T06:36:13;50.13;;;28.02;;
45688;SDS011;31400;48.132;20.872;2024-02-16T06:38:39;50.33;;;29.60;;
45688;SDS011;31400;48.132;20.872;2024-02-16T06:41:05;50.03;;;28.83;;
45688;SDS011;31400;48.132;20.872;2024-02-16T06:43:31;53.10;;;29.33;;
45688;SDS011;31400;48.132;20.872;2024-02-16T06:45:57;53.03;;;28.52;;
45688;SDS011;31400;48.132;20.872;2024-02-16T06:48:23;47.70;;;26.88;;
45688;SDS011;31400;48.132;20.872;2024-02-16T06:50:50;49.10;;;24.48;;
45688;SDS011;31400;48.132;20.872;2024-02-16T06:53:16;40.22;;;24.45;;
45688;SDS011;31400;48.132;20.872;2024-02-16T06:55:42;39.00;;;23.25;;
45688;SDS011;31400;48.132;20.872;2024-02-16T06:58:08;36.15;;;25.02;;
45688;SDS011;31400;48.132;20.872;2024-02-16T07:00:34;34.08;;;21.92;;
45688;SDS011;31400;48.132;20.872;2024-02-16T07:03:00;35.13;;;22.08;;
45688;SDS011;31400;48.132;20.872;2024-02-16T07:05:26;41.08;;;24.20;;
45688;SDS011;31400;48.132;20.872;2024-02-16T07:07:53;34.70;;;23.15;;
45688;SDS011;31400;48.132;20.872;2024-02-16T07:10:19;40.55;;;23.50;;
45688;SDS011;31400;48.132;20.872;2024-02-16T07:12:45;40.40;;;23.80;;
45688;SDS011;31400;48.132;20.872;2024-02-16T07:15:11;41.42;;;23.95;;
45688;SDS011;31400;48.132;20.872;2024-02-16T07:17:37;37.60;;;21.73;;
45688;SDS011;31400;48.132;20.872;2024-02-16T07:20:03;33.03;;;22.42;;
45688;SDS011;31400;48.132;20.872;2024-02-16T07:24:55;30.38;;;19.85;;
45688;SDS011;31400;48.132;20.872;2024-02-16T07:27:21;23.95;;;17.63;;
45688;SDS011;31400;48.132;20.872;2024-02-16T07:29:47;22.75;;;16.10;;
45688;SDS011;31400;48.132;20.872;2024-02-16T07:32:13;28.77;;;18.27;;
45688;SDS011;31400;48.132;20.872;2024-02-16T07:34:39;24.88;;;17.20;;
45688;SDS011;31400;48.132;20.872;2024-02-16T07:37:05;25.13;;;15.20;;
45688;SDS011;31400;48.132;20.872;2024-02-16T07:39:33;25.80;;;15.20;;
45688;SDS011;31400;48.132;20.872;2024-02-16T07:41:58;21.70;;;14.15;;
45688;SDS011;31400;48.132;20.872;2024-02-16T07:44:24;20.38;;;14.57;;
45688;SDS011;31400;48.132;20.872;2024-02-16T07:46:51;17.38;;;12.68;;
45688;SDS011;31400;48.132;20.872;2024-02-16T07:49:17;22.75;;;14.00;;
45688;SDS011;31400;48.132;20.872;2024-02-16T07:51:43;22.63;;;14.10;;
45688;SDS011;31400;48.132;20.872;2024-02-16T07:56:35;19.75;;;14.32;;
45688;SDS011;31400;48.132;20.872;2024-02-16T07:59:01;21.15;;;14.35;;
45688;SDS011;31400;48.132;20.872;2024-02-16T08:03:54;16.90;;;12.15;;
45688;SDS011;31400;48.132;20.872;2024-02-16T08:06:24;22.23;;;14.85;;
45688;SDS011;31400;48.132;20.872;2024-02-16T08:08:50;21.35;;;14.60;;
45688;SDS011;31400;48.132;20.872;2024-02-16T08:11:16;22.20;;;14.65;;
45688;SDS011;31400;48.132;20.872;2024-02-16T08:13:42;22.85;;;14.98;;
45688;SDS011;31400;48.132;20.872;2024-02-16T08:16:09;17.33;;;12.98;;
45688;SDS011;31400;48.132;20.872;2024-02-16T08:18:35;19.65;;;12.80;;
45688;SDS011;31400;48.132;20.872;2024-02-16T08:21:01;15.23;;;12.05;;
45688;SDS011;31400;48.132;20.872;2024-02-16T08:23:27;17.48;;;14.02;;
45688;SDS011;31400;48.132;20.872;2024-02-16T08:25:53;19.95;;;13.93;;
45688;SDS011;31400;48.132;20.872;2024-02-16T08:28:20;21.30;;;13.52;;
45688;SDS011;31400;48.132;20.872;2024-02-16T08:30:46;17.88;;;13.70;;
45688;SDS011;31400;48.132;20.872;2024-02-16T08:33:12;22.67;;;14.20;;
45688;SDS011;31400;48.132;20.872;2024-02-16T08:35:38;29.20;;;14.95;;
45688;SDS011;31400;48.132;20.872;2024-02-16T08:38:04;21.27;;;15.57;;
45688;SDS011;31400;48.132;20.872;2024-02-16T08:40:30;21.15;;;13.85;;
45688;SDS011;31400;48.132;20.872;2024-02-16T08:42:56;18.20;;;12.55;;
45688;SDS011;31400;48.132;20.872;2024-02-16T08:45:23;22.60;;;14.40;;
45688;SDS011;31400;48.132;20.872;2024-02-16T08:47:49;16.10;;;13.68;;
45688;SDS011;31400;48.132;20.872;2024-02-16T08:50:15;17.92;;;14.00;;
45688;SDS011;31400;48.132;20.872;2024-02-16T08:52:41;26.38;;;13.82;;
45688;SDS011;31400;48.132;20.872;2024-02-16T08:55:09;19.10;;;14.77;;
45688;SDS011;31400;48.132;20.872;2024-02-16T08:57:35;18.25;;;13.35;;
45688;SDS011;31400;48.132;20.872;2024-02-16T09:00:01;22.50;;;14.65;;
45688;SDS011;31400;48.132;20.872;2024-02-16T09:02:28;19.73;;;14.55;;
45688;SDS011;31400;48.132;20.872;2024-02-16T09:04:54;17.13;;;12.70;;
45688;SDS011;31400;48.132;20.872;2024-02-16T09:07:20;24.10;;;13.25;;
45688;SDS011;31400;48.132;20.872;2024-02-16T09:09:47;18.65;;;13.77;;
45688;SDS011;31400;48.132;20.872;2024-02-16T09:12:13;19.77;;;14.32;;
45688;SDS011;31400;48.132;20.872;2024-02-16T09:14:39;20.98;;;15.13;;
45688;SDS011;31400;48.132;20.872;2024-02-16T09:17:05;22.70;;;16.23;;
45688;SDS011;31400;48.132;20.872;2024-02-16T09:19:31;22.98;;;15.20;;
45688;SDS011;31400;48.132;20.872;2024-02-16T09:21:59;31.85;;;16.88;;
45688;SDS011;31400;48.132;20.872;2024-02-16T09:24:27;28.00;;;16.80;;
45688;SDS011;31400;48.132;20.872;2024-02-16T09:26:54;21.42;;;15.20;;
45688;SDS011;31400;48.132;20.872;2024-02-16T09:29:21;19.10;;;16.35;;
45688;SDS011;31400;48.132;20.872;2024-02-16T09:31:48;21.77;;;16.77;;
45688;SDS011;31400;48.132;20.872;2024-02-16T09:34:17;24.48;;;17.08;;
45688;SDS011;31400;48.132;20.872;2024-02-16T09:36:44;27.33;;;15.75;;
45688;SDS011;31400;48.132;20.872;2024-02-16T09:39:10;19.58;;;13.32;;
45688;SDS011;31400;48.132;20.872;2024-02-16T09:41:36;23.55;;;15.25;;
45688;SDS011;31400;48.132;20.872;2024-02-16T09:44:02;20.55;;;15.25;;
45688;SDS011;31400;48.132;20.872;2024-02-16T09:46:28;20.35;;;15.23;;
45688;SDS011;31400;48.132;20.872;2024-02-16T09:48:56;22.02;;;13.90;;
45688;SDS011;31400;48.132;20.872;2024-02-16T09:51:22;20.30;;;14.88;;
45688;SDS011;31400;48.132;20.872;2024-02-16T09:53:50;21.67;;;14.07;;
45688;SDS011;31400;48.132;20.872;2024-02-16T09:56:25;20.45;;;14.32;;
45688;SDS011;31400;48.132;20.872;2024-02-16T09:58:51;16.05;;;13.38;;
45688;SDS011;31400;48.132;20.872;2024-02-16T10:01:18;22.20;;;15.00;;
45688;SDS011;31400;48.132;20.872;2024-02-16T10:03:45;20.25;;;13.65;;
45688;SDS011;31400;48.132;20.872;2024-02-16T10:06:11;23.42;;;13.32;;
45688;SDS011;31400;48.132;20.872;2024-02-16T10:08:47;21.42;;;13.98;;
45688;SDS011;31400;48.132;20.872;2024-02-16T10:11:17;17.73;;;13.73;;
45688;SDS011;31400;48.132;20.872;2024-02-16T10:13:56;20.20;;;14.23;;
45688;SDS011;31400;48.132;20.872;2024-02-16T10:16:22;15.68;;;13.35;;
45688;SDS011;31400;48.132;20.872;2024-02-16T10:18:49;19.42;;;14.30;;
45688;SDS011;31400;48.132;20.872;2024-02-16T10:21:23;18.65;;;13.05;;
45688;SDS011;31400;48.132;20.872;2024-02-16T10:26:28;16.17;;;11.85;;
45688;SDS011;31400;48.132;20.872;2024-02-16T10:28:54;23.83;;;12.90;;
45688;SDS011;31400;48.132;20.872;2024-02-16T10:31:24;17.00;;;12.43;;
45688;SDS011;31400;48.132;20.872;2024-02-16T10:34:00;19.10;;;12.77;;
45688;SDS011;31400;48.132;20.872;2024-02-16T10:36:30;14.70;;;12.15;;
45688;SDS011;31400;48.132;20.872;2024-02-16T10:38:56;16.10;;;12.30;;
45688;SDS011;31400;48.132;20.872;2024-02-16T10:41:25;17.05;;;10.02;;
45688;SDS011;31400;48.132;20.872;2024-02-16T10:43:53;17.98;;;10.23;;
45688;SDS011;31400;48.132;20.872;2024-02-16T10:46:19;16.23;;;10.20;;
45688;SDS011;31400;48.132;20.872;2024-02-16T10:48:46;15.57;;;10.63;;
45688;SDS011;31400;48.132;20.872;2024-02-16T10:51:12;13.80;;;11.00;;
45688;SDS011;31400;48.132;20.872;2024-02-16T10:53:39;13.27;;;9.13;;
45688;SDS011;31400;48.132;20.872;2024-02-16T10:56:06;14.73;;;10.75;;
45688;SDS011;31400;48.132;20.872;2024-02-16T10:58:33;14.95;;;10.20;;
45688;SDS011;31400;48.132;20.872;2024-02-16T11:01:07;13.13;;;10.27;;
45688;SDS011;31400;48.132;20.872;2024-02-16T11:03:33;10.68;;;9.23;;
45688;SDS011;31400;48.132;20.872;2024-02-16T11:05:59;15.63;;;9.77;;
45688;SDS011;31400;48.132;20.872;2024-02-16T11:08:26;11.43;;;7.28;;
45688;SDS011;31400;48.132;20.872;2024-02-16T11:11:02;14.75;;;9.25;;
45688;SDS011;31400;48.132;20.872;2024-02-16T11:13:32;17.42;;;9.80;;
45688;SDS011;31400;48.132;20.872;2024-02-16T11:15:58;11.23;;;7.63;;
45688;SDS011;31400;48.132;20.872;2024-02-16T11:18:25;13.30;;;8.98;;
45688;SDS011;31400;48.132;20.872;2024-02-16T11:20:52;11.02;;;7.95;;
45688;SDS011;31400;48.132;20.872;2024-02-16T11:23:24;16.42;;;10.15;;
45688;SDS011;31400;48.132;20.872;2024-02-16T11:25:50;10.82;;;7.68;;
45688;SDS011;31400;48.132;20.872;2024-02-16T11:28:16;15.60;;;8.25;;
45688;SDS011;31400;48.132;20.872;2024-02-16T11:30:43;13.65;;;8.20;;
45688;SDS011;31400;48.132;20.872;2024-02-16T11:33:12;11.05;;;7.38;;
45688;SDS011;31400;48.132;20.872;2024-02-16T11:35:38;15.43;;;8.80;;
45688;SDS011;31400;48.132;20.872;2024-02-16T11:38:04;13.93;;;9.07;;
45688;SDS011;31400;48.132;20.872;2024-02-16T11:40:30;15.27;;;9.52;;
45688;SDS011;31400;48.132;20.872;2024-02-16T11:42:59;11.23;;;8.27;;
45688;SDS011;31400;48.132;20.872;2024-02-16T11:45:26;12.43;;;9.15;;
45688;SDS011;31400;48.132;20.872;2024-02-16T11:48:02;12.15;;;8.32;;
45688;SDS011;31400;48.132;20.872;2024-02-16T11:50:28;12.05;;;8.07;;
45688;SDS011;31400;48.132;20.872;2024-02-16T11:52:54;13.90;;;9.25;;
45688;SDS011;31400;48.132;20.872;2024-02-16T11:55:20;15.25;;;9.00;;
45688;SDS011;31400;48.132;20.872;2024-02-16T11:57:46;12.88;;;8.23;;
45688;SDS011;31400;48.132;20.872;2024-02-16T12:00:15;10.50;;;7.85;;
45688;SDS011;31400;48.132;20.872;2024-02-16T12:02:42;10.38;;;7.70;;
45688;SDS011;31400;48.132;20.872;2024-02-16T12:05:08;12.48;;;7.88;;
45688;SDS011;31400;48.132;20.872;2024-02-16T12:07:36;13.90;;;8.63;;
45688;SDS011;31400;48.132;20.872;2024-02-16T12:10:05;11.60;;;7.50;;
45688;SDS011;31400;48.132;20.872;2024-02-16T12:12:32;12.43;;;8.40;;
45688;SDS011;31400;48.132;20.872;2024-02-16T12:17:28;14.15;;;8.65;;
45688;SDS011;31400;48.132;20.872;2024-02-16T12:19:54;11.65;;;7.80;;
45688;SDS011;31400;48.132;20.872;2024-02-16T12:22:20;14.75;;;8.05;;
45688;SDS011;31400;48.132;20.872;2024-02-16T12:24:47;13.77;;;9.32;;
45688;SDS011;31400;48.132;20.872;2024-02-16T12:27:13;12.02;;;8.15;;
45688;SDS011;31400;48.132;20.872;2024-02-16T12:29:39;10.35;;;7.85;;
45688;SDS011;31400;48.132;20.872;2024-02-16T12:32:05;12.98;;;8.68;;
45688;SDS011;31400;48.132;20.872;2024-02-16T12:34:34;15.32;;;8.60;;
45688;SDS011;31400;48.132;20.872;2024-02-16T12:37:02;10.10;;;7.53;;
45688;SDS011;31400;48.132;20.872;2024-02-16T12:39:29;11.45;;;7.28;;
45688;SDS011;31400;48.132;20.872;2024-02-16T12:41:56;10.55;;;7.78;;
45688;SDS011;31400;48.132;20.872;2024-02-16T12:44:24;12.73;;;8.45;;
45688;SDS011;31400;48.132;20.872;2024-02-16T12:46:49;10.10;;;7.93;;
45688;SDS011;31400;48.132;20.872;2024-02-16T12:49:15;12.93;;;8.18;;
45688;SDS011;31400;48.132;20.872;2024-02-16T12:51:41;12.80;;;8.43;;
45688;SDS011;31400;48.132;20.872;2024-02-16T12:54:08;11.63;;;8.15;;
45688;SDS011;31400;48.132;20.872;2024-02-16T12:56:38;10.50;;;7.70;;
45688;SDS011;31400;48.132;20.872;2024-02-16T12:59:05;9.32;;;7.35;;
45688;SDS011;31400;48.132;20.872;2024-02-16T13:01:31;13.82;;;7.85;;
45688;SDS011;31400;48.132;20.872;2024-02-16T13:03:57;12.25;;;7.43;;
45688;SDS011;31400;48.132;20.872;2024-02-16T13:06:23;10.20;;;7.07;;
45688;SDS011;31400;48.132;20.872;2024-02-16T13:08:49;11.15;;;6.95;;
45688;SDS011;31400;48.132;20.872;2024-02-16T13:11:15;11.05;;;7.05;;
45688;SDS011;31400;48.132;20.872;2024-02-16T13:13:41;10.15;;;5.78;;
45688;SDS011;31400;48.132;20.872;2024-02-16T13:18:33;14.80;;;6.53;;
45688;SDS011;31400;48.132;20.872;2024-02-16T13:23:25;9.82;;;7.07;;
45688;SDS011;31400;48.132;20.872;2024-02-16T13:25:53;12.55;;;6.55;;
45688;SDS011;31400;48.132;20.872;2024-02-16T13:30:45;11.85;;;7.05;;
45688;SDS011;31400;48.132;20.872;2024-02-16T13:35:37;10.35;;;6.55;;
45688;SDS011;31400;48.132;20.872;2024-02-16T13:38:04;12.07;;;6.07;;
45688;SDS011;31400;48.132;20.872;2024-02-16T13:40:30;11.98;;;6.47;;
45688;SDS011;31400;48.132;20.872;2024-02-16T13:45:26;9.60;;;5.85;;
45688;SDS011;31400;48.132;20.872;2024-02-16T13:47:52;12.57;;;7.97;;
45688;SDS011;31400;48.132;20.872;2024-02-16T13:50:18;9.52;;;5.95;;
45688;SDS011;31400;48.132;20.872;2024-02-16T13:52:44;12.43;;;6.70;;
45688;SDS011;31400;48.132;20.872;2024-02-16T13:55:10;10.93;;;6.90;;
45688;SDS011;31400;48.132;20.872;2024-02-16T14:00:04;11.85;;;7.43;;
45688;SDS011;31400;48.132;20.872;2024-02-16T14:02:30;14.50;;;7.55;;
45688;SDS011;31400;48.132;20.872;2024-02-16T14:04:59;11.52;;;6.65;;
45688;SDS011;31400;48.132;20.872;2024-02-16T14:09:51;9.50;;;6.30;;
45688;SDS011;31400;48.132;20.872;2024-02-16T14:12:17;12.23;;;7.22;;
45688;SDS011;31400;48.132;20.872;2024-02-16T14:14:43;13.57;;;6.55;;
45688;SDS011;31400;48.132;20.872;2024-02-16T14:17:09;10.80;;;6.30;;
45688;SDS011;31400;48.132;20.872;2024-02-16T14:19:35;10.38;;;5.82;;
45688;SDS011;31400;48.132;20.872;2024-02-16T14:22:02;11.63;;;5.70;;
45688;SDS011;31400;48.132;20.872;2024-02-16T14:24:30;17.65;;;7.22;;
45688;SDS011;31400;48.132;20.872;2024-02-16T14:29:24;10.95;;;6.28;;
45688;SDS011;31400;48.132;20.872;2024-02-16T14:31:50;11.30;;;6.70;;
45688;SDS011;31400;48.132;20.872;2024-02-16T14:34:16;13.02;;;6.63;;
45688;SDS011;31400;48.132;20.872;2024-02-16T14:36:42;8.65;;;6.03;;
45688;SDS011;31400;48.132;20.872;2024-02-16T14:39:08;10.00;;;6.65;;
45688;SDS011;31400;48.132;20.872;2024-02-16T14:41:36;16.13;;;7.45;;
45688;SDS011;31400;48.132;20.872;2024-02-16T14:46:38;10.35;;;6.50;;
45688;SDS011;31400;48.132;20.872;2024-02-16T14:49:04;9.45;;;6.50;;
45688;SDS011;31400;48.132;20.872;2024-02-16T14:51:33;11.25;;;5.63;;
45688;SDS011;31400;48.132;20.872;2024-02-16T14:54:00;17.38;;;6.07;;
45688;SDS011;31400;48.132;20.872;2024-02-16T14:56:28;16.38;;;7.10;;
45688;SDS011;31400;48.132;20.872;2024-02-16T14:58:54;15.82;;;7.03;;
45688;SDS011;31400;48.132;20.872;2024-02-16T15:01:21;10.60;;;7.18;;
45688;SDS011;31400;48.132;20.872;2024-02-16T15:03:47;12.70;;;6.47;;
45688;SDS011;31400;48.132;20.872;2024-02-16T15:06:13;10.77;;;5.90;;